Hauptseite
METAR-TAF:

METAR-TAF

Flughäfen :

Flughafen Kassel-Calden

Kassel, Deutschland

Breite: 51-24N, Länge: 009-23E, Höhe: 277 m

Beobachtung

Neuester Wetterbericht von vor 49 Minuten, um 22:50 UTC
Wind 7 kt aus Süd, variierte zwischen Südost und Süd/Südwest
Temperatur 2°C
Luftfeuchtigkeit 87%
Luftdruck 1005 hPa
Sichtweite 10 km oder mehr

METAR: EDVK 242250Z AUTO 18007KT 140V200 9999 // NCD 02/00 Q1005

Zeit: 00:39 (23:39 UTC)

Prognose

Neuester Wetterbericht von vor 6 Stunden und 39 Minuten, um 17:00 UTC
Gültige Prognose vom 24 um 18 UTC bis 25 um 03 UTC
Wind 7 kt aus Süd
Sichtweite 10 km oder mehr
Leicht bewölkt in der Höhe von 4000 ft
Wahrscheinlichkeit 30% :
Zeitweise
vom 24 um 18 UTC bis 24 um 20 UTC
Durchbrochene Bewölkung in der Höhe von 2000 ft, Kumulonimbus.
Regenschauer,

TAF: EDVK 241700Z 2418/2503 17007KT 9999 FEW040 PROB30 TEMPO 2418/2420 SHRA BKN020CB

Wetterbeobachtungen und Prognosen von mehr als 4000 Flughäfen (METAR und TAF Bericht).

Die verfügbaren Stationen werden durch gelbe und rote Markierungen auf der Karte dargestellt.

Führen Sie die Maus auf sie, um den Namen der Station zu sehen.

Darauf klicken, um die Beobachtung von Wetterbeobachtungen und Prognosen zu sehen.

Um die Karte zu ändern : klicken Sie auf den grünen Tasten mit einem schwarzen Kreuz Zum Vergrößern, auf den grünen Button mit einem Gedankenstrich zu verkleinern, oder auf die grünen Pfeile für benachbarte Karten.


METAR-TAF: